createdAt,value
2023-05-10T00:01:25.434Z,32.50
2023-05-10T00:03:53.489Z,24.80
2023-05-10T00:06:21.617Z,20.00
2023-05-10T00:08:49.598Z,18.00
2023-05-10T00:11:17.678Z,33.10
2023-05-10T00:13:45.595Z,24.90
2023-05-10T00:16:14.270Z,22.10
2023-05-10T00:18:42.704Z,22.10
2023-05-10T00:21:10.788Z,23.90
2023-05-10T00:23:38.812Z,21.70
2023-05-10T00:26:07.226Z,24.00
2023-05-10T00:28:35.399Z,21.60
2023-05-10T00:31:04.612Z,25.50
2023-05-10T00:33:32.566Z,24.30
2023-05-10T00:36:00.569Z,16.60
2023-05-10T00:38:28.591Z,21.20
2023-05-10T00:40:56.587Z,20.20
2023-05-10T00:43:28.540Z,24.30
2023-05-10T00:45:57.081Z,23.80
2023-05-10T00:48:25.508Z,16.80
2023-05-10T00:50:53.470Z,29.00
2023-05-10T00:53:22.064Z,21.70
2023-05-10T00:55:50.032Z,18.90
2023-05-10T00:58:18.287Z,23.90
2023-05-10T01:00:47.618Z,21.10
2023-05-10T01:03:15.787Z,18.30
2023-05-10T01:05:43.871Z,21.20
2023-05-10T01:08:12.104Z,22.80
2023-05-10T01:10:40.201Z,23.90
2023-05-10T01:13:08.682Z,24.10
2023-05-10T01:15:38.034Z,13.80
2023-05-10T01:18:06.719Z,27.00
2023-05-10T01:20:44.593Z,24.40
2023-05-10T01:23:28.001Z,11.80
2023-05-10T01:26:08.068Z,23.30
2023-05-10T01:28:41.763Z,23.00
2023-05-10T01:31:40.808Z,17.80
2023-05-10T01:34:21.910Z,19.90
2023-05-10T01:36:59.851Z,19.20
2023-05-10T01:39:46.756Z,29.70
2023-05-10T01:42:21.161Z,29.00
2023-05-10T01:44:59.136Z,21.40
2023-05-10T01:47:36.717Z,22.20
2023-05-10T01:50:11.392Z,22.20
2023-05-10T01:52:44.834Z,23.90
2023-05-10T01:55:17.215Z,25.60
2023-05-10T01:57:49.193Z,22.80
2023-05-10T02:00:19.406Z,21.70
2023-05-10T02:02:49.961Z,23.90
2023-05-10T02:05:19.477Z,23.60
2023-05-10T02:07:48.984Z,26.40
2023-05-10T02:10:18.481Z,25.70
2023-05-10T02:12:50.555Z,25.10
2023-05-10T02:15:23.485Z,23.50
2023-05-10T02:17:53.686Z,17.10
2023-05-10T02:20:24.497Z,29.70
2023-05-10T02:22:55.648Z,24.90
2023-05-10T02:25:25.720Z,15.00
2023-05-10T02:27:58.045Z,27.60
2023-05-10T02:30:27.281Z,22.90
2023-05-10T02:32:57.286Z,15.80
2023-05-10T02:35:27.376Z,19.70
2023-05-10T02:37:55.873Z,18.80
2023-05-10T02:40:26.862Z,21.20
2023-05-10T02:42:59.830Z,28.30
2023-05-10T02:45:31.526Z,29.50
2023-05-10T02:48:00.702Z,14.60
2023-05-10T02:50:31.209Z,19.00
2023-05-10T02:53:04.991Z,19.90
2023-05-10T02:55:37.850Z,17.80
2023-05-10T02:58:06.642Z,21.30
2023-05-10T03:00:35.118Z,22.60
2023-05-10T03:03:03.212Z,22.20
2023-05-10T03:05:31.466Z,22.40
2023-05-10T03:08:05.186Z,24.90
2023-05-10T03:10:35.093Z,23.00
2023-05-10T03:13:14.040Z,23.40
2023-05-10T03:16:06.372Z,19.60
2023-05-10T03:18:51.980Z,26.80
2023-05-10T03:21:22.885Z,15.80
2023-05-10T03:24:13.027Z,14.90
2023-05-10T03:26:45.046Z,15.30
2023-05-10T03:29:16.859Z,20.90
2023-05-10T03:31:45.399Z,20.00
2023-05-10T03:34:13.539Z,23.60
2023-05-10T03:36:41.483Z,23.80
2023-05-10T03:39:10.056Z,20.10
2023-05-10T03:41:38.892Z,23.20
2023-05-10T03:44:07.158Z,22.30
2023-05-10T03:46:35.281Z,16.40
2023-05-10T03:49:04.447Z,12.50
2023-05-10T03:51:33.008Z,21.00
2023-05-10T03:54:00.887Z,16.00
2023-05-10T03:56:29.362Z,25.90
2023-05-10T03:58:57.396Z,18.60
2023-05-10T04:01:25.453Z,19.40
2023-05-10T04:03:53.569Z,17.80
2023-05-10T04:06:21.806Z,16.80
2023-05-10T04:08:49.771Z,14.20
2023-05-10T04:11:17.903Z,16.90
2023-05-10T04:13:45.887Z,17.40
2023-05-10T04:16:13.976Z,25.00
2023-05-10T04:18:42.038Z,17.60
2023-05-10T04:21:14.591Z,19.60
2023-05-10T04:23:42.722Z,18.80
2023-05-10T04:26:10.690Z,13.60
2023-05-10T04:28:39.001Z,21.60
2023-05-10T04:31:08.430Z,15.80
2023-05-10T04:33:37.601Z,16.40
2023-05-10T04:36:06.224Z,18.20
2023-05-10T04:38:34.256Z,22.00
2023-05-10T04:41:09.208Z,18.80
2023-05-10T04:43:37.965Z,20.00
2023-05-10T04:46:06.959Z,13.50
2023-05-10T04:48:35.312Z,23.20
2023-05-10T04:51:05.151Z,11.40
2023-05-10T04:53:33.757Z,28.00
2023-05-10T04:56:02.021Z,14.00
2023-05-10T04:58:29.997Z,16.50
2023-05-10T05:00:58.186Z,12.90
2023-05-10T05:03:26.537Z,13.90
2023-05-10T05:05:54.717Z,18.30
2023-05-10T05:08:22.789Z,14.30
2023-05-10T05:10:51.481Z,18.60
2023-05-10T05:13:20.062Z,16.20
2023-05-10T05:15:48.543Z,20.50
2023-05-10T05:18:16.644Z,19.80
2023-05-10T05:20:44.636Z,18.40
2023-05-10T05:23:12.958Z,17.20
2023-05-10T05:25:40.902Z,15.40
2023-05-10T05:28:09.072Z,17.60
2023-05-10T05:30:37.018Z,13.80
2023-05-10T05:33:05.397Z,11.50
2023-05-10T05:35:33.522Z,13.60
2023-05-10T05:38:02.206Z,16.00
2023-05-10T05:40:30.178Z,17.00
2023-05-10T05:42:58.144Z,27.30
2023-05-10T05:45:26.241Z,19.00
2023-05-10T05:47:54.434Z,18.20
2023-05-10T05:50:22.574Z,22.10
2023-05-10T05:52:50.839Z,22.70
2023-05-10T05:55:19.023Z,13.20
2023-05-10T05:57:47.272Z,28.00
2023-05-10T06:00:15.735Z,15.00
2023-05-10T06:02:44.000Z,17.30
2023-05-10T06:05:12.227Z,21.60
2023-05-10T06:07:41.934Z,19.60
2023-05-10T06:10:11.034Z,15.40
2023-05-10T06:12:38.930Z,14.10
2023-05-10T06:15:07.774Z,23.20
2023-05-10T06:17:35.876Z,25.90
2023-05-10T06:20:04.576Z,29.70
2023-05-10T06:22:32.616Z,23.50
2023-05-10T06:25:01.007Z,18.90
2023-05-10T06:27:29.077Z,22.60
2023-05-10T06:30:09.272Z,13.20
2023-05-10T06:32:41.006Z,17.10
2023-05-10T06:35:09.580Z,12.90
2023-05-10T06:37:37.532Z,15.60
2023-05-10T06:40:07.244Z,14.50
2023-05-10T06:42:35.212Z,23.40
2023-05-10T06:45:04.177Z,15.20
2023-05-10T06:47:32.916Z,19.70
2023-05-10T06:50:01.111Z,20.30
2023-05-10T06:52:29.684Z,18.30
2023-05-10T06:54:58.761Z,18.10
2023-05-10T06:57:31.705Z,18.10
2023-05-10T07:00:00.451Z,19.70
2023-05-10T07:02:29.255Z,19.20
2023-05-10T07:04:59.487Z,16.20
2023-05-10T07:07:30.057Z,15.40
2023-05-10T07:09:58.875Z,17.00
2023-05-10T07:12:27.179Z,14.50
2023-05-10T07:14:55.398Z,19.00
2023-05-10T07:17:23.478Z,16.70
2023-05-10T07:19:51.749Z,16.60
2023-05-10T07:22:19.828Z,17.70
2023-05-10T07:24:47.901Z,16.00
2023-05-10T07:27:16.065Z,11.20
2023-05-10T07:29:44.011Z,14.20
2023-05-10T07:32:12.158Z,14.10
2023-05-10T07:34:40.280Z,20.20
2023-05-10T07:37:08.580Z,13.70
2023-05-10T07:39:36.633Z,14.80
2023-05-10T07:42:04.592Z,16.10
2023-05-10T07:44:32.618Z,12.90
2023-05-10T07:47:00.574Z,15.90
2023-05-10T07:49:28.526Z,17.10
2023-05-10T07:51:56.777Z,18.10
2023-05-10T07:54:25.062Z,20.30
2023-05-10T07:56:53.080Z,19.20
2023-05-10T07:59:21.294Z,16.00
2023-05-10T08:01:49.170Z,12.70
2023-05-10T08:04:17.307Z,15.80
2023-05-10T08:06:45.537Z,19.50
2023-05-10T08:09:13.751Z,23.50
2023-05-10T08:11:41.795Z,21.00
2023-05-10T08:14:09.833Z,17.70
2023-05-10T08:16:37.814Z,23.00
2023-05-10T08:19:06.387Z,23.00
2023-05-10T08:21:34.534Z,21.10
2023-05-10T08:24:02.964Z,20.20
2023-05-10T08:26:31.930Z,15.30
2023-05-10T08:29:00.312Z,17.40
2023-05-10T08:31:28.319Z,19.90
2023-05-10T08:33:56.520Z,12.40
2023-05-10T08:36:25.462Z,11.10
2023-05-10T08:38:54.173Z,16.60
2023-05-10T08:41:24.928Z,9.80
2023-05-10T08:43:54.312Z,21.50
2023-05-10T08:46:24.566Z,12.00
2023-05-10T08:48:53.309Z,14.40
2023-05-10T08:51:27.863Z,16.60
2023-05-10T08:53:56.396Z,15.10
2023-05-10T08:56:25.186Z,18.70
2023-05-10T08:58:53.584Z,20.10
2023-05-10T09:01:22.818Z,15.80
2023-05-10T09:03:52.143Z,19.90
2023-05-10T09:06:20.958Z,13.00
2023-05-10T09:08:49.254Z,17.80
2023-05-10T09:11:18.487Z,28.80
2023-05-10T09:13:49.156Z,13.00
2023-05-10T09:16:21.880Z,25.30
2023-05-10T09:18:50.955Z,16.70
2023-05-10T09:21:21.040Z,15.00
2023-05-10T09:23:51.382Z,13.10
2023-05-10T09:26:24.235Z,17.00
2023-05-10T09:28:54.834Z,21.20
2023-05-10T09:31:24.869Z,17.60
2023-05-10T09:33:54.906Z,15.70
2023-05-10T09:36:22.856Z,17.50
2023-05-10T09:38:52.974Z,16.10
2023-05-10T09:41:24.046Z,12.50
2023-05-10T09:43:56.838Z,15.00
2023-05-10T09:46:24.867Z,16.80
2023-05-10T09:48:52.980Z,13.60
2023-05-10T09:51:25.861Z,18.10
2023-05-10T09:54:17.792Z,16.70
2023-05-10T09:56:46.078Z,11.90
2023-05-10T09:59:14.352Z,14.50
2023-05-10T10:01:42.661Z,23.90
2023-05-10T10:04:12.027Z,14.30
2023-05-10T10:06:40.912Z,14.60
2023-05-10T10:09:10.476Z,13.20
2023-05-10T10:11:39.859Z,20.20
2023-05-10T10:14:07.904Z,12.10
2023-05-10T10:16:36.113Z,16.00
2023-05-10T10:19:04.409Z,14.10
2023-05-10T10:21:32.730Z,19.40
2023-05-10T10:24:00.710Z,17.50
2023-05-10T10:26:29.090Z,12.20
2023-05-10T10:29:22.233Z,17.40
2023-05-10T10:32:25.658Z,12.40
2023-05-10T10:34:56.190Z,13.80
2023-05-10T10:37:25.261Z,13.80
2023-05-10T10:39:53.429Z,15.60
2023-05-10T10:42:48.348Z,16.20
2023-05-10T10:45:16.697Z,11.40
2023-05-10T10:47:46.326Z,13.60
2023-05-10T10:50:14.476Z,15.60
2023-05-10T10:52:44.359Z,14.50
2023-05-10T10:55:20.037Z,12.10
2023-05-10T10:57:54.623Z,21.20
2023-05-10T11:00:25.887Z,14.00
2023-05-10T11:02:55.381Z,14.60
2023-05-10T11:05:37.279Z,13.00
2023-05-10T11:08:32.382Z,11.90
2023-05-10T11:11:00.644Z,11.70
2023-05-10T11:13:36.362Z,20.50
2023-05-10T11:16:25.591Z,16.20
2023-05-10T11:19:03.326Z,12.80
2023-05-10T11:21:33.715Z,18.40
2023-05-10T11:24:06.901Z,17.60
2023-05-10T11:26:36.512Z,16.80
2023-05-10T11:29:06.113Z,12.50
2023-05-10T11:31:34.337Z,13.10
2023-05-10T11:34:06.106Z,14.10
2023-05-10T11:36:35.908Z,19.00
2023-05-10T11:39:05.631Z,21.90
2023-05-10T11:41:34.353Z,13.50
2023-05-10T11:44:03.087Z,12.70
2023-05-10T11:46:31.242Z,13.60
2023-05-10T11:49:05.419Z,9.10
2023-05-10T11:51:38.045Z,14.70
2023-05-10T11:54:11.634Z,15.80
2023-05-10T11:56:41.104Z,13.60
2023-05-10T11:59:09.417Z,21.00
2023-05-10T12:01:38.121Z,16.10
2023-05-10T12:04:06.954Z,19.70
2023-05-10T12:06:41.650Z,16.20
2023-05-10T12:09:09.949Z,11.20
2023-05-10T12:11:44.271Z,13.60
2023-05-10T12:14:12.914Z,10.70
2023-05-10T12:16:41.413Z,13.40
2023-05-10T12:19:09.859Z,11.20
2023-05-10T12:21:40.011Z,10.30
2023-05-10T12:24:09.017Z,10.90
2023-05-10T12:26:37.369Z,11.10
2023-05-10T12:29:21.426Z,11.70
2023-05-10T12:34:37.408Z,15.30
2023-05-10T12:37:05.656Z,15.50
2023-05-10T12:39:45.392Z,13.20
2023-05-10T12:42:13.358Z,10.50
2023-05-10T12:44:41.592Z,13.60
2023-05-10T12:47:09.544Z,13.80
2023-05-10T12:49:37.506Z,12.40
2023-05-10T12:52:05.912Z,11.80
2023-05-10T12:54:35.841Z,12.10
2023-05-10T12:57:03.896Z,12.70
2023-05-10T12:59:31.865Z,11.40
2023-05-10T13:02:00.039Z,9.00
2023-05-10T13:04:28.154Z,11.50
2023-05-10T13:07:00.123Z,16.20
2023-05-10T13:09:30.561Z,15.90
2023-05-10T13:14:27.492Z,14.00
2023-05-10T13:16:55.475Z,10.10
2023-05-10T13:19:23.511Z,17.20
2023-05-10T13:21:51.452Z,10.90
2023-05-10T13:24:19.378Z,12.50
2023-05-10T13:26:47.357Z,13.40
2023-05-10T13:29:16.919Z,10.20
2023-05-10T13:31:45.029Z,10.60
2023-05-10T13:34:13.056Z,11.90
2023-05-10T13:36:41.156Z,12.30
2023-05-10T13:39:09.726Z,9.30
2023-05-10T13:41:38.209Z,13.60
2023-05-10T13:44:06.792Z,7.60
2023-05-10T13:46:34.765Z,11.90
2023-05-10T13:49:03.133Z,9.00
2023-05-10T13:51:32.742Z,10.70
2023-05-10T13:54:00.709Z,8.00
2023-05-10T13:56:28.736Z,16.80
2023-05-10T13:58:59.223Z,10.60
2023-05-10T14:01:27.254Z,8.20
2023-05-10T14:03:55.375Z,12.60
2023-05-10T14:06:23.321Z,13.10
2023-05-10T14:08:51.302Z,10.00
2023-05-10T14:11:19.252Z,10.60
2023-05-10T14:13:47.250Z,9.80
2023-05-10T14:16:15.992Z,4.70
2023-05-10T14:18:44.203Z,11.50
2023-05-10T14:21:12.400Z,9.10
2023-05-10T14:23:40.545Z,12.40
2023-05-10T14:26:08.906Z,11.00
2023-05-10T14:28:36.919Z,10.80
2023-05-10T14:31:06.582Z,11.80
2023-05-10T14:33:34.622Z,10.60
2023-05-10T14:36:04.506Z,6.00
2023-05-10T14:38:32.640Z,14.70
2023-05-10T14:41:00.582Z,11.60
2023-05-10T14:43:29.130Z,7.50
2023-05-10T14:45:57.411Z,10.60
2023-05-10T14:48:25.498Z,10.30
2023-05-10T14:50:53.741Z,8.70
2023-05-10T14:53:22.002Z,5.70
2023-05-10T14:55:50.032Z,13.80
2023-05-10T14:58:18.240Z,12.30
2023-05-10T15:00:47.134Z,10.10
2023-05-10T15:03:15.764Z,6.40
2023-05-10T15:05:44.502Z,8.00
2023-05-10T15:08:13.622Z,11.30
2023-05-10T15:10:41.773Z,9.30
2023-05-10T15:13:09.706Z,9.80
2023-05-10T15:15:37.738Z,10.70
2023-05-10T15:18:06.776Z,12.20
2023-05-10T15:20:34.986Z,11.70
2023-05-10T15:23:02.950Z,9.90
2023-05-10T15:25:30.922Z,7.40
2023-05-10T15:27:58.995Z,9.50
2023-05-10T15:30:27.026Z,7.70
2023-05-10T15:32:55.285Z,7.50
2023-05-10T15:35:23.592Z,11.30
2023-05-10T15:37:51.564Z,8.50
2023-05-10T15:40:19.765Z,13.00
2023-05-10T15:42:47.721Z,12.20
2023-05-10T15:45:16.495Z,7.70
2023-05-10T15:47:45.844Z,8.30
2023-05-10T15:50:13.977Z,12.10
2023-05-10T15:52:42.474Z,13.40
2023-05-10T15:55:13.742Z,9.20
2023-05-10T15:57:43.953Z,8.70
2023-05-10T16:00:13.249Z,9.40
2023-05-10T16:02:42.035Z,9.70
2023-05-10T16:05:11.125Z,8.20
2023-05-10T16:07:40.442Z,6.80
2023-05-10T16:10:10.706Z,7.70
2023-05-10T16:12:39.677Z,7.00
2023-05-10T16:15:09.670Z,7.10
2023-05-10T16:17:40.137Z,7.40
2023-05-10T16:22:41.912Z,9.90
2023-05-10T16:27:43.845Z,4.00
2023-05-10T16:30:12.784Z,4.10
2023-05-10T16:32:40.929Z,5.10
2023-05-10T16:35:11.903Z,3.00
2023-05-10T16:37:41.453Z,3.90
2023-05-10T16:40:10.558Z,7.50
2023-05-10T16:42:39.444Z,6.00
2023-05-10T16:45:09.401Z,6.40
2023-05-10T16:47:38.834Z,7.20
2023-05-10T16:50:08.476Z,4.40
2023-05-10T16:52:37.369Z,7.10
2023-05-10T16:55:06.150Z,14.70
2023-05-10T16:57:35.474Z,9.30
2023-05-10T17:00:05.162Z,7.20
2023-05-10T17:02:33.293Z,12.50
2023-05-10T17:05:01.752Z,4.10
2023-05-10T17:07:30.599Z,5.40
2023-05-10T17:09:59.650Z,9.50
2023-05-10T17:12:27.719Z,9.20
2023-05-10T17:14:55.671Z,12.20
2023-05-10T17:17:23.758Z,9.70
2023-05-10T17:19:52.003Z,12.10
2023-05-10T17:22:20.205Z,7.30
2023-05-10T17:24:48.234Z,7.20
2023-05-10T17:27:16.522Z,9.10
2023-05-10T17:29:44.514Z,5.70
2023-05-10T17:32:12.550Z,8.20
2023-05-10T17:34:40.930Z,10.40
2023-05-10T17:37:09.652Z,5.90
2023-05-10T17:39:39.339Z,10.10
2023-05-10T17:42:08.531Z,5.40
2023-05-10T17:44:36.845Z,6.10
2023-05-10T17:47:04.786Z,8.90
2023-05-10T17:49:32.737Z,9.40
2023-05-10T17:52:00.734Z,9.20
2023-05-10T17:54:28.894Z,8.30
2023-05-10T17:56:58.229Z,6.60
2023-05-10T17:59:26.223Z,10.40
2023-05-10T18:01:54.504Z,10.50
2023-05-10T18:04:22.480Z,7.80
2023-05-10T18:06:50.581Z,5.90
2023-05-10T18:09:21.009Z,7.30
2023-05-10T18:11:48.970Z,6.00
2023-05-10T18:14:28.238Z,8.60
2023-05-10T18:17:04.607Z,6.80
2023-05-10T18:19:32.669Z,9.60
2023-05-10T18:22:00.688Z,11.10
2023-05-10T18:24:38.435Z,9.00
2023-05-10T18:27:09.011Z,11.50
2023-05-10T18:29:37.740Z,9.90
2023-05-10T18:32:06.551Z,7.60
2023-05-10T18:34:34.561Z,7.90
2023-05-10T18:37:07.544Z,8.60
2023-05-10T18:39:38.734Z,12.70
2023-05-10T18:42:07.730Z,7.10
2023-05-10T18:44:35.691Z,9.10
2023-05-10T18:47:03.695Z,5.30
2023-05-10T18:49:32.329Z,7.00
2023-05-10T18:52:01.110Z,7.90
2023-05-10T18:54:29.909Z,13.50
2023-05-10T18:56:58.979Z,7.60
2023-05-10T18:59:28.121Z,8.70
2023-05-10T19:01:57.509Z,7.50
2023-05-10T19:04:26.124Z,8.20
2023-05-10T19:06:55.971Z,11.70
2023-05-10T19:09:27.244Z,13.60
2023-05-10T19:11:55.609Z,7.70
2023-05-10T19:14:25.463Z,8.80
2023-05-10T19:16:54.933Z,7.50
2023-05-10T19:19:24.871Z,6.40
2023-05-10T19:21:53.852Z,5.70
2023-05-10T19:24:25.194Z,13.40
2023-05-10T19:26:55.538Z,13.40
2023-05-10T19:29:24.264Z,11.00
2023-05-10T19:31:52.926Z,6.40
2023-05-10T19:34:21.809Z,6.30
2023-05-10T19:36:50.880Z,8.30
2023-05-10T19:39:19.885Z,5.80
2023-05-10T19:41:50.403Z,10.00
2023-05-10T19:44:19.101Z,7.20
2023-05-10T19:46:47.689Z,6.70
2023-05-10T19:49:16.870Z,11.00
2023-05-10T19:51:46.151Z,5.70
2023-05-10T19:54:14.648Z,5.20
2023-05-10T19:56:42.949Z,7.90
2023-05-10T19:59:12.252Z,6.50
2023-05-10T20:01:40.903Z,10.30
2023-05-10T20:04:11.356Z,6.20
2023-05-10T20:06:39.823Z,6.50
2023-05-10T20:09:09.938Z,5.30
2023-05-10T20:11:39.854Z,6.90
2023-05-10T20:14:11.001Z,16.60
2023-05-10T20:16:42.181Z,9.20
2023-05-10T20:19:12.481Z,11.30
2023-05-10T20:21:40.710Z,7.00
2023-05-10T20:24:09.329Z,6.20
2023-05-10T20:26:37.505Z,3.50
2023-05-10T20:29:05.583Z,5.10
2023-05-10T20:31:33.776Z,6.20
2023-05-10T20:34:02.076Z,8.30
2023-05-10T20:36:31.273Z,6.60
2023-05-10T20:38:59.512Z,6.10
2023-05-10T20:41:27.552Z,5.80
2023-05-10T20:43:55.648Z,4.90
2023-05-10T20:46:27.192Z,7.20
2023-05-10T20:48:55.366Z,6.70
2023-05-10T20:51:23.548Z,5.80
2023-05-10T20:53:51.714Z,7.00
2023-05-10T20:56:19.993Z,5.80
2023-05-10T20:58:48.168Z,12.60
2023-05-10T21:01:16.228Z,13.60
2023-05-10T21:03:44.620Z,6.40
2023-05-10T21:06:12.684Z,7.90
2023-05-10T21:08:40.650Z,11.80
2023-05-10T21:11:08.727Z,9.30
2023-05-10T21:13:36.918Z,8.20
2023-05-10T21:16:05.237Z,6.50
2023-05-10T21:18:33.296Z,8.60
2023-05-10T21:21:01.427Z,8.20
2023-05-10T21:23:29.394Z,15.40
2023-05-10T21:25:57.468Z,7.70
2023-05-10T21:28:25.647Z,7.70
2023-05-10T21:30:53.819Z,7.60
2023-05-10T21:33:21.990Z,5.90
2023-05-10T21:35:50.648Z,5.80
2023-05-10T21:38:20.005Z,9.50
2023-05-10T21:40:47.885Z,11.10
2023-05-10T21:43:15.917Z,6.70
2023-05-10T21:45:44.009Z,9.10
2023-05-10T21:48:13.782Z,7.40
2023-05-10T21:50:44.021Z,9.40
2023-05-10T21:53:11.962Z,9.60
2023-05-10T21:55:40.004Z,7.20
2023-05-10T21:58:07.967Z,4.90
2023-05-10T22:00:35.940Z,6.30
2023-05-10T22:03:04.060Z,12.20
2023-05-10T22:05:32.350Z,5.30
2023-05-10T22:08:00.419Z,8.30
2023-05-10T22:10:28.500Z,6.40
2023-05-10T22:12:57.385Z,5.00
2023-05-10T22:15:26.173Z,9.40
2023-05-10T22:17:54.187Z,9.60
2023-05-10T22:20:22.315Z,5.30
2023-05-10T22:22:50.351Z,7.00
2023-05-10T22:25:18.568Z,9.40
2023-05-10T22:27:46.665Z,5.30
2023-05-10T22:30:15.060Z,7.30
2023-05-10T22:32:43.220Z,7.40
2023-05-10T22:35:11.766Z,7.30
2023-05-10T22:37:39.840Z,9.80
2023-05-10T22:40:08.646Z,7.30
2023-05-10T22:42:36.698Z,8.40
2023-05-10T22:45:05.383Z,11.20
2023-05-10T22:47:33.727Z,11.80
2023-05-10T22:50:03.768Z,7.80
2023-05-10T22:52:31.997Z,12.10
2023-05-10T22:55:00.069Z,7.20
2023-05-10T22:57:28.397Z,7.70
2023-05-10T22:59:56.433Z,5.00
2023-05-10T23:02:24.693Z,8.40
2023-05-10T23:04:52.842Z,8.50
2023-05-10T23:07:21.210Z,8.50
2023-05-10T23:09:49.275Z,7.80
2023-05-10T23:12:17.553Z,4.60
2023-05-10T23:14:47.807Z,10.20
2023-05-10T23:17:15.949Z,8.00
2023-05-10T23:19:44.223Z,7.70
2023-05-10T23:22:12.513Z,11.10
2023-05-10T23:24:40.692Z,12.20
2023-05-10T23:27:09.344Z,10.90
2023-05-10T23:29:37.823Z,6.40
2023-05-10T23:32:06.006Z,8.60
2023-05-10T23:34:34.391Z,17.30
2023-05-10T23:37:02.788Z,8.20
2023-05-10T23:39:30.869Z,10.70
2023-05-10T23:41:58.924Z,5.90
2023-05-10T23:44:27.096Z,9.50
2023-05-10T23:46:55.171Z,9.00
2023-05-10T23:49:23.241Z,7.00
2023-05-10T23:51:51.428Z,8.70
2023-05-10T23:54:19.587Z,3.70
2023-05-10T23:56:47.761Z,8.40
2023-05-10T23:59:15.970Z,6.60
